Time,TemperatureF,DewpointF,PressureIn,WindDirection,WindDirectionDegrees,WindSpeedMPH,WindSpeedGustMPH,Humidity,HourlyPrecipIn,Conditions,Clouds,dailyrainin,SoftwareType,DateUTC
2013-04-06 00:07:00,38.3,25.2,29.96,WNW,298,5.0,11.0,59,0.00,,,0.00,Wunderground v.1.15,2013-04-06 04:07:00,
2013-04-06 00:12:00,38.2,25.5,29.96,WNW,298,7.0,13.0,60,0.00,,,0.00,Wunderground v.1.15,2013-04-06 04:12:00,
2013-04-06 00:17:00,38.0,25.7,29.96,NW,325,4.0,13.0,61,0.00,,,0.00,Wunderground v.1.15,2013-04-06 04:17:00,
2013-04-06 00:22:00,37.9,25.6,29.97,West,268,7.0,11.0,61,0.00,,,0.00,Wunderground v.1.15,2013-04-06 04:22:00,
2013-04-06 00:27:00,37.7,25.5,29.96,NW,304,6.0,11.0,61,0.00,,,0.00,Wunderground v.1.15,2013-04-06 04:27:00,
2013-04-06 00:32:00,37.5,25.3,29.97,North,360,6.0,9.0,61,0.00,,,0.00,Wunderground v.1.15,2013-04-06 04:32:00,
2013-04-06 00:37:00,37.5,25.3,29.97,West,267,5.0,9.0,61,0.00,,,0.00,Wunderground v.1.15,2013-04-06 04:37:00,
2013-04-06 00:42:00,37.3,25.1,29.97,NW,316,2.0,8.0,61,0.00,,,0.00,Wunderground v.1.15,2013-04-06 04:42:00,
2013-04-06 00:48:00,37.1,25.3,29.97,West,270,5.0,10.0,62,0.00,,,0.00,Wunderground v.1.15,2013-04-06 04:48:00,
2013-04-06 00:53:00,37.1,25.3,29.97,NW,314,5.0,11.0,62,0.00,,,0.00,Wunderground v.1.15,2013-04-06 04:53:00,
2013-04-06 00:58:00,36.9,25.1,29.97,SW,223,3.0,11.0,62,0.00,,,0.00,Wunderground v.1.15,2013-04-06 04:58:00,
2013-04-06 01:03:00,36.7,24.9,29.98,West,281,3.0,8.0,62,0.00,,,0.00,Wunderground v.1.15,2013-04-06 05:03:00,
2013-04-06 01:08:00,36.6,24.8,29.98,NW,307,11.0,11.0,62,0.00,,,0.00,Wunderground v.1.15,2013-04-06 05:08:00,
2013-04-06 01:13:00,36.5,25.1,29.98,West,281,0.0,5.0,63,0.00,,,0.00,Wunderground v.1.15,2013-04-06 05:13:00,
2013-04-06 01:19:00,36.3,24.9,29.99,NW,312,3.0,3.0,63,0.00,,,0.00,Wunderground v.1.15,2013-04-06 05:19:00,
2013-04-06 01:26:00,36.2,24.8,29.99,North,355,4.0,6.0,63,0.00,,,0.00,Wunderground v.1.15,2013-04-06 05:26:00,
2013-04-06 01:31:00,36.1,24.7,29.99,NW,309,8.0,8.0,63,0.00,,,0.00,Wunderground v.1.15,2013-04-06 05:31:00,
2013-04-06 01:36:00,36.0,24.6,29.99,West,271,2.0,10.0,63,0.00,,,0.00,Wunderground v.1.15,2013-04-06 05:36:00,
2013-04-06 01:42:00,35.9,24.5,29.99,NNW,341,5.0,6.0,63,0.00,,,0.00,Wunderground v.1.15,2013-04-06 05:42:00,
2013-04-06 01:47:00,35.8,24.4,30.00,NNW,333,6.0,11.0,63,0.00,,,0.00,Wunderground v.1.15,2013-04-06 05:47:00,
2013-04-06 01:54:00,35.7,24.3,30.00,NW,313,2.0,8.0,63,0.00,,,0.00,Wunderground v.1.15,2013-04-06 05:54:00,
2013-04-06 01:59:00,35.5,24.1,30.00,NNW,335,2.0,4.0,63,0.00,,,0.00,Wunderground v.1.15,2013-04-06 05:59:00,
2013-04-06 02:05:00,35.3,24.3,30.00,WNW,300,2.0,6.0,64,0.00,,,0.00,Wunderground v.1.15,2013-04-06 06:05:00,
2013-04-06 02:10:00,35.7,26.2,30.00,North,5,6.0,6.0,68,0.00,,,0.00,Wunderground v.1.15,2013-04-06 06:10:00,
2013-04-06 02:15:00,35.9,25.6,30.00,WNW,298,6.0,6.0,66,0.00,,,0.00,Wunderground v.1.15,2013-04-06 06:15:00,
2013-04-06 02:20:00,35.7,25.4,30.00,WNW,292,2.0,4.0,66,0.00,,,0.00,Wunderground v.1.15,2013-04-06 06:20:00,
2013-04-06 02:25:00,35.6,25.7,30.01,NW,308,1.0,9.0,67,0.00,,,0.00,Wunderground v.1.15,2013-04-06 06:25:00,
2013-04-06 02:30:00,36.3,29.8,30.01,WNW,296,4.0,7.0,77,0.00,,,0.00,Wunderground v.1.15,2013-04-06 06:30:00,
2013-04-06 02:35:00,35.9,26.0,30.01,WNW,302,1.0,7.0,67,0.00,,,0.00,Wunderground v.1.15,2013-04-06 06:35:00,
2013-04-06 02:40:00,36.2,27.4,30.01,WNW,303,3.0,5.0,70,0.00,,,0.00,Wunderground v.1.15,2013-04-06 06:40:00,
2013-04-06 02:45:00,35.4,24.4,30.01,NNW,331,2.0,5.0,64,0.00,,,0.00,Wunderground v.1.15,2013-04-06 06:45:00,
2013-04-06 02:51:00,34.7,23.8,30.02,NNW,342,3.0,7.0,64,0.00,,,0.00,Wunderground v.1.15,2013-04-06 06:51:00,
2013-04-06 02:56:00,34.4,23.1,30.02,NW,319,6.0,7.0,63,0.00,,,0.00,Wunderground v.1.15,2013-04-06 06:56:00,
2013-04-06 03:01:00,34.4,23.1,30.02,NW,304,5.0,6.0,63,0.00,,,0.00,Wunderground v.1.15,2013-04-06 07:01:00,
2013-04-06 03:06:00,34.3,22.6,30.02,WNW,284,3.0,9.0,62,0.00,,,0.00,Wunderground v.1.15,2013-04-06 07:06:00,
2013-04-06 03:11:00,34.2,22.1,30.03,WNW,296,3.0,5.0,61,0.00,,,0.00,Wunderground v.1.15,2013-04-06 07:11:00,
2013-04-06 03:16:00,34.2,22.1,30.03,WNW,296,3.0,9.0,61,0.00,,,0.00,Wunderground v.1.15,2013-04-06 07:16:00,
2013-04-06 03:21:00,34.1,22.0,30.03,WNW,299,4.0,5.0,61,0.00,,,0.00,Wunderground v.1.15,2013-04-06 07:21:00,
2013-04-06 03:26:00,34.0,21.2,30.03,WNW,289,5.0,8.0,59,0.00,,,0.00,Wunderground v.1.15,2013-04-06 07:26:00,
2013-04-06 03:31:00,34.1,20.9,30.04,West,269,6.0,7.0,58,0.00,,,0.00,Wunderground v.1.15,2013-04-06 07:31:00,
2013-04-06 03:36:00,34.0,19.9,30.05,SW,231,4.0,9.0,56,0.00,,,0.00,Wunderground v.1.15,2013-04-06 07:36:00,
2013-04-06 03:41:00,33.9,19.4,30.05,NNW,337,3.0,10.0,55,0.00,,,0.00,Wunderground v.1.15,2013-04-06 07:41:00,
2013-04-06 03:46:00,33.9,19.0,30.05,West,263,3.0,10.0,54,0.00,,,0.00,Wunderground v.1.15,2013-04-06 07:46:00,
2013-04-06 03:51:00,33.8,18.5,30.05,NW,325,3.0,11.0,53,0.00,,,0.00,Wunderground v.1.15,2013-04-06 07:51:00,
2013-04-06 03:56:00,33.7,18.4,30.05,WNW,293,5.0,11.0,53,0.00,,,0.00,Wunderground v.1.15,2013-04-06 07:56:00,
2013-04-06 04:01:00,33.6,17.4,30.06,North,360,6.0,7.0,51,0.00,,,0.00,Wunderground v.1.15,2013-04-06 08:01:00,
2013-04-06 04:07:00,33.7,17.0,30.07,NW,316,4.0,10.0,50,0.00,,,0.00,Wunderground v.1.15,2013-04-06 08:07:00,
2013-04-06 04:12:00,33.5,16.8,30.07,NW,306,5.0,7.0,50,0.00,,,0.00,Wunderground v.1.15,2013-04-06 08:12:00,
2013-04-06 04:17:00,33.4,16.3,30.07,WNW,296,3.0,11.0,49,0.00,,,0.00,Wunderground v.1.15,2013-04-06 08:17:00,
2013-04-06 04:22:00,33.2,16.5,30.08,NW,313,8.0,8.0,50,0.00,,,0.00,Wunderground v.1.15,2013-04-06 08:22:00,
2013-04-06 04:27:00,33.1,16.5,30.08,WNW,302,5.0,10.0,50,0.00,,,0.00,Wunderground v.1.15,2013-04-06 08:27:00,
2013-04-06 04:32:00,32.9,16.3,30.08,West,277,3.0,5.0,50,0.00,,,0.00,Wunderground v.1.15,2013-04-06 08:32:00,
2013-04-06 04:37:00,32.9,16.3,30.08,NW,324,3.0,12.0,50,0.00,,,0.00,Wunderground v.1.15,2013-04-06 08:37:00,
2013-04-06 04:42:00,32.8,16.2,30.09,WNW,284,3.0,9.0,50,0.00,,,0.00,Wunderground v.1.15,2013-04-06 08:42:00,
2013-04-06 04:47:00,32.6,16.0,30.09,NW,311,4.0,9.0,50,0.00,,,0.00,Wunderground v.1.15,2013-04-06 08:47:00,
2013-04-06 04:52:00,32.5,15.9,30.09,North,360,3.0,5.0,50,0.00,,,0.00,Wunderground v.1.15,2013-04-06 08:52:00,
2013-04-06 04:57:00,32.4,15.8,30.10,WNW,296,3.0,12.0,50,0.00,,,0.00,Wunderground v.1.15,2013-04-06 08:57:00,
2013-04-06 05:02:00,32.2,15.6,30.10,WNW,284,3.0,5.0,50,0.00,,,0.00,Wunderground v.1.15,2013-04-06 09:02:00,
2013-04-06 05:07:00,32.0,15.4,30.10,WNW,300,4.0,7.0,50,0.00,,,0.00,Wunderground v.1.15,2013-04-06 09:07:00,
2013-04-06 05:12:00,32.0,15.0,30.11,NW,304,5.0,9.0,49,0.00,,,0.00,Wunderground v.1.15,2013-04-06 09:12:00,
2013-04-06 05:17:00,32.0,15.0,30.11,ENE,67,5.0,11.0,49,0.00,,,0.00,Wunderground v.1.15,2013-04-06 09:17:00,
2013-04-06 05:22:00,31.9,14.9,30.12,WNW,300,3.0,7.0,49,0.00,,,0.00,Wunderground v.1.15,2013-04-06 09:22:00,
2013-04-06 05:27:00,31.8,14.3,30.12,West,263,6.0,7.0,48,0.00,,,0.00,Wunderground v.1.15,2013-04-06 09:27:00,
2013-04-06 05:32:00,31.8,14.3,30.12,WSW,258,6.0,8.0,48,0.00,,,0.00,Wunderground v.1.15,2013-04-06 09:32:00,
2013-04-06 05:38:00,31.7,13.7,30.13,NNW,329,5.0,8.0,47,0.00,,,0.00,Wunderground v.1.15,2013-04-06 09:38:00,
2013-04-06 05:43:00,31.7,12.8,30.13,WNW,283,3.0,11.0,45,0.00,,,0.00,Wunderground v.1.15,2013-04-06 09:43:00,
2013-04-06 05:48:00,31.7,12.2,30.14,WNW,294,10.0,11.0,44,0.00,,,0.00,Wunderground v.1.15,2013-04-06 09:48:00,
2013-04-06 05:53:00,31.7,12.2,30.14,WNW,288,2.0,8.0,44,0.00,,,0.00,Wunderground v.1.15,2013-04-06 09:53:00,
2013-04-06 05:58:00,31.5,12.1,30.14,NW,315,5.0,11.0,44,0.00,,,0.00,Wunderground v.1.15,2013-04-06 09:58:00,
2013-04-06 06:03:00,31.5,12.1,30.15,NNW,336,4.0,13.0,44,0.00,,,0.00,Wunderground v.1.15,2013-04-06 10:03:00,
2013-04-06 06:08:00,31.3,11.9,30.15,SW,236,9.0,19.0,44,0.00,,,0.00,Wunderground v.1.15,2013-04-06 10:08:00,
2013-04-06 06:13:00,31.3,11.4,30.15,NW,308,2.0,12.0,43,0.00,,,0.00,Wunderground v.1.15,2013-04-06 10:13:00,
2013-04-06 06:18:00,31.6,13.7,30.16,NNW,348,3.0,12.0,47,0.00,,,0.00,Wunderground v.1.15,2013-04-06 10:18:00,
2013-04-06 06:23:00,31.5,13.1,30.16,NNW,327,6.0,12.0,46,0.00,,,0.00,Wunderground v.1.15,2013-04-06 10:23:00,
2013-04-06 06:28:00,31.3,12.9,30.17,NNW,327,3.0,14.0,46,0.00,,,0.00,Wunderground v.1.15,2013-04-06 10:28:00,
2013-04-06 06:33:00,31.3,14.8,30.17,NW,307,4.0,7.0,50,0.00,,,0.00,Wunderground v.1.15,2013-04-06 10:33:00,
2013-04-06 06:38:00,31.3,12.4,30.17,NW,309,3.0,12.0,45,0.00,,,0.00,Wunderground v.1.15,2013-04-06 10:38:00,
2013-04-06 06:43:00,30.9,11.5,30.17,NNW,329,2.0,7.0,44,0.00,,,0.00,Wunderground v.1.15,2013-04-06 10:43:00,
2013-04-06 06:48:00,30.7,11.3,30.18,NW,310,3.0,9.0,44,0.00,,,0.00,Wunderground v.1.15,2013-04-06 10:48:00,
2013-04-06 06:53:00,30.7,11.3,30.18,North,5,5.0,12.0,44,0.00,,,0.00,Wunderground v.1.15,2013-04-06 10:53:00,
2013-04-06 06:58:00,30.7,11.8,30.18,NW,312,2.0,12.0,45,0.00,,,0.00,Wunderground v.1.15,2013-04-06 10:58:00,
2013-04-06 07:03:00,30.7,12.3,30.19,WNW,293,6.0,12.0,46,0.00,,,0.00,Wunderground v.1.15,2013-04-06 11:03:00,
2013-04-06 07:08:00,30.7,14.2,30.19,WNW,283,5.0,17.0,50,0.00,,,0.00,Wunderground v.1.15,2013-04-06 11:08:00,
2013-04-06 07:13:00,30.7,15.6,30.20,WSW,257,1.0,14.0,53,0.00,,,0.00,Wunderground v.1.15,2013-04-06 11:13:00,
2013-04-06 07:14:00,30.7,15.6,30.21,NE,45,1.0,5.0,53,0.00,,,0.00,Wunderground v.1.15,2013-04-06 11:14:00,
2013-04-06 07:15:00,30.8,15.7,30.21,NW,304,4.0,9.0,53,0.00,,,0.00,Wunderground v.1.15,2013-04-06 11:15:00,
2013-04-06 07:16:00,30.8,15.7,30.21,WNW,282,4.0,13.0,53,0.00,,,0.00,Wunderground v.1.15,2013-04-06 11:16:00,
2013-04-06 07:17:00,30.8,15.7,30.21,NNE,30,3.0,13.0,53,0.00,,,0.00,Wunderground v.1.15,2013-04-06 11:17:00,
2013-04-06 07:18:00,30.7,15.6,30.20,SW,226,7.0,14.0,53,0.00,,,0.00,Wunderground v.1.15,2013-04-06 11:18:00,
2013-04-06 07:20:00,30.8,15.2,30.21,NW,304,8.0,12.0,52,0.00,,,0.00,Wunderground v.1.15,2013-04-06 11:20:00,
2013-04-06 07:21:00,30.8,15.2,30.22,West,277,7.0,12.0,52,0.00,,,0.00,Wunderground v.1.15,2013-04-06 11:21:00,
2013-04-06 07:22:00,30.8,15.7,30.22,NNW,327,11.0,12.0,53,0.00,,,0.00,Wunderground v.1.15,2013-04-06 11:22:00,
2013-04-06 07:23:00,30.7,16.0,30.21,NNE,29,4.0,10.0,54,0.00,,,0.00,Wunderground v.1.15,2013-04-06 11:23:00,
2013-04-06 07:29:00,30.7,15.6,30.21,North,5,3.0,4.0,53,0.00,,,0.00,Wunderground v.1.15,2013-04-06 11:29:00,
2013-04-06 07:35:00,30.8,15.7,30.21,NW,322,11.0,11.0,53,0.00,,,0.00,Wunderground v.1.15,2013-04-06 11:35:00,
2013-04-06 07:40:00,30.8,15.2,30.21,NW,311,12.0,12.0,52,0.00,,,0.00,Wunderground v.1.15,2013-04-06 11:40:00,
2013-04-06 07:45:00,30.7,15.6,30.22,WNW,299,8.0,14.0,53,0.00,,,0.00,Wunderground v.1.15,2013-04-06 11:45:00,
2013-04-06 07:50:00,30.8,15.7,30.22,NNW,337,10.0,12.0,53,0.00,,,0.00,Wunderground v.1.15,2013-04-06 11:50:00,
2013-04-06 07:55:00,30.9,14.9,30.22,WNW,289,4.0,12.0,51,0.00,,,0.00,Wunderground v.1.15,2013-04-06 11:55:00,
2013-04-06 08:00:00,30.8,12.9,30.23,WNW,303,6.0,10.0,47,0.00,,,0.00,Wunderground v.1.15,2013-04-06 12:00:00,
2013-04-06 08:05:00,30.8,12.9,30.23,West,273,6.0,15.0,47,0.00,,,0.00,Wunderground v.1.15,2013-04-06 12:05:00,
2013-04-06 08:11:00,31.3,15.2,30.23,WNW,292,8.0,18.0,51,0.00,,,0.00,Wunderground v.1.15,2013-04-06 12:11:00,
2013-04-06 08:16:00,32.2,17.0,30.24,North,9,4.0,18.0,53,0.00,,,0.00,Wunderground v.1.15,2013-04-06 12:16:00,
2013-04-06 08:21:00,31.7,12.2,30.24,NNW,331,6.0,10.0,44,0.00,,,0.00,Wunderground v.1.15,2013-04-06 12:21:00,
2013-04-06 08:26:00,31.2,10.2,30.24,NNW,346,9.0,20.0,41,0.00,,,0.00,Wunderground v.1.15,2013-04-06 12:26:00,
2013-04-06 08:31:00,31.1,10.1,30.24,NNW,337,13.0,13.0,41,0.00,,,0.00,Wunderground v.1.15,2013-04-06 12:31:00,
2013-04-06 08:36:00,30.8,8.7,30.24,North,360,11.0,23.0,39,0.00,,,0.00,Wunderground v.1.15,2013-04-06 12:36:00,
2013-04-06 08:41:00,30.8,9.3,30.25,NNW,327,7.0,13.0,40,0.00,,,0.00,Wunderground v.1.15,2013-04-06 12:41:00,
2013-04-06 08:46:00,30.9,8.8,30.25,WNW,301,9.0,18.0,39,0.00,,,0.00,Wunderground v.1.15,2013-04-06 12:46:00,
2013-04-06 08:51:00,31.4,9.3,30.26,North,5,3.0,8.0,39,0.00,,,0.00,Wunderground v.1.15,2013-04-06 12:51:00,
2013-04-06 08:56:00,31.7,9.5,30.25,WNW,282,4.0,13.0,39,0.00,,,0.00,Wunderground v.1.15,2013-04-06 12:56:00,
2013-04-06 09:01:00,31.4,9.8,30.26,North,355,3.0,16.0,40,0.00,,,0.00,Wunderground v.1.15,2013-04-06 13:01:00,
2013-04-06 09:06:00,31.8,10.2,30.26,NNW,340,13.0,19.0,40,0.00,,,0.00,Wunderground v.1.15,2013-04-06 13:06:00,
2013-04-06 09:11:00,31.8,11.8,30.26,NNW,337,13.0,18.0,43,0.00,,,0.00,Wunderground v.1.15,2013-04-06 13:11:00,
2013-04-06 09:16:00,31.9,10.3,30.26,NNW,338,5.0,19.0,40,0.00,,,0.00,Wunderground v.1.15,2013-04-06 13:16:00,
2013-04-06 09:22:00,31.9,13.4,30.26,NNW,333,14.0,18.0,46,0.00,,,0.00,Wunderground v.1.15,2013-04-06 13:22:00,
2013-04-06 09:27:00,31.7,10.1,30.26,West,261,15.0,18.0,40,0.00,,,0.00,Wunderground v.1.15,2013-04-06 13:27:00,
2013-04-06 09:32:00,31.6,10.0,30.27,North,350,3.0,17.0,40,0.00,,,0.00,Wunderground v.1.15,2013-04-06 13:32:00,
2013-04-06 09:37:00,31.9,8.5,30.27,WNW,295,14.0,17.0,37,0.00,,,0.00,Wunderground v.1.15,2013-04-06 13:37:00,
2013-04-06 09:42:00,31.8,9.0,30.28,East,88,5.0,12.0,38,0.00,,,0.00,Wunderground v.1.15,2013-04-06 13:42:00,
2013-04-06 09:47:00,31.5,7.6,30.27,West,280,13.0,22.0,36,0.00,,,0.00,Wunderground v.1.15,2013-04-06 13:47:00,
2013-04-06 09:52:00,31.4,8.1,30.28,NNW,331,11.0,22.0,37,0.00,,,0.00,Wunderground v.1.15,2013-04-06 13:52:00,
2013-04-06 09:57:00,32.2,16.1,30.28,WNW,285,4.0,22.0,51,0.00,,,0.00,Wunderground v.1.15,2013-04-06 13:57:00,
2013-04-06 10:03:00,32.8,10.5,30.28,West,267,13.0,13.0,39,0.00,,,0.00,Wunderground v.1.15,2013-04-06 14:03:00,
2013-04-06 10:08:00,32.5,8.5,30.29,WSW,250,6.0,20.0,36,0.00,,,0.00,Wunderground v.1.15,2013-04-06 14:08:00,
2013-04-06 10:13:00,32.7,8.0,30.29,East,80,9.0,17.0,35,0.00,,,0.00,Wunderground v.1.15,2013-04-06 14:13:00,
2013-04-06 10:18:00,32.7,7.4,30.30,WNW,290,12.0,18.0,34,0.00,,,0.00,Wunderground v.1.15,2013-04-06 14:18:00,
2013-04-06 10:23:00,32.6,6.6,30.29,NW,304,13.0,23.0,33,0.00,,,0.00,Wunderground v.1.15,2013-04-06 14:23:00,
2013-04-06 10:28:00,33.0,7.0,30.30,NNE,13,2.0,23.0,33,0.00,,,0.00,Wunderground v.1.15,2013-04-06 14:28:00,
2013-04-06 10:33:00,33.8,7.0,30.30,West,267,4.0,16.0,32,0.00,,,0.00,Wunderground v.1.15,2013-04-06 14:33:00,
2013-04-06 10:38:00,33.8,7.0,30.29,West,276,3.0,18.0,32,0.00,,,0.00,Wunderground v.1.15,2013-04-06 14:38:00,
2013-04-06 10:43:00,34.7,8.5,30.29,WNW,294,8.0,9.0,33,0.00,,,0.00,Wunderground v.1.15,2013-04-06 14:43:00,
2013-04-06 10:48:00,35.2,8.2,30.30,WNW,290,4.0,17.0,32,0.00,,,0.00,Wunderground v.1.15,2013-04-06 14:48:00,
2013-04-06 10:53:00,35.5,16.2,30.30,NW,309,2.0,12.0,45,0.00,,,0.00,Wunderground v.1.15,2013-04-06 14:53:00,
2013-04-06 10:58:00,34.7,9.1,30.30,NW,307,12.0,20.0,34,0.00,,,0.00,Wunderground v.1.15,2013-04-06 14:58:00,
2013-04-06 11:03:00,34.7,10.4,30.30,NNW,339,3.0,13.0,36,0.00,,,0.00,Wunderground v.1.15,2013-04-06 15:03:00,
2013-04-06 11:08:00,35.1,6.0,30.30,NW,304,12.0,19.0,29,0.00,,,0.00,Wunderground v.1.15,2013-04-06 15:08:00,
2013-04-06 11:13:00,34.3,6.0,30.30,West,262,7.0,18.0,30,0.00,,,0.00,Wunderground v.1.15,2013-04-06 15:13:00,
2013-04-06 11:18:00,34.4,5.4,30.30,WNW,303,10.0,18.0,29,0.00,,,0.00,Wunderground v.1.15,2013-04-06 15:18:00,
2013-04-06 11:23:00,34.5,6.2,30.30,ENE,71,11.0,13.0,30,0.00,,,0.00,Wunderground v.1.15,2013-04-06 15:23:00,
2013-04-06 11:28:00,34.8,4.9,30.30,NNW,331,14.0,16.0,28,0.00,,,0.00,Wunderground v.1.15,2013-04-06 15:28:00,
2013-04-06 11:33:00,34.5,4.7,30.31,NW,309,4.0,19.0,28,0.00,,,0.00,Wunderground v.1.15,2013-04-06 15:33:00,
2013-04-06 11:39:00,35.2,5.3,30.30,NW,306,14.0,19.0,28,0.00,,,0.00,Wunderground v.1.15,2013-04-06 15:39:00,
2013-04-06 11:44:00,35.3,5.4,30.30,WNW,299,11.0,20.0,28,0.00,,,0.00,Wunderground v.1.15,2013-04-06 15:44:00,
2013-04-06 11:49:00,36.2,5.4,30.31,North,349,5.0,8.0,27,0.00,,,0.00,Wunderground v.1.15,2013-04-06 15:49:00,
2013-04-06 11:54:00,36.7,5.0,30.31,NNW,336,17.0,17.0,26,0.00,,,0.00,Wunderground v.1.15,2013-04-06 15:54:00,
2013-04-06 12:00:00,35.6,3.2,30.31,West,275,6.0,13.0,25,0.00,,,0.00,Wunderground v.1.15,2013-04-06 16:00:00,
2013-04-06 12:05:00,35.8,4.2,30.31,NNW,334,10.0,16.0,26,0.00,,,0.00,Wunderground v.1.15,2013-04-06 16:05:00,
2013-04-06 12:10:00,37.0,6.1,30.31,NNE,17,13.0,13.0,27,0.00,,,0.00,Wunderground v.1.15,2013-04-06 16:10:00,
2013-04-06 12:15:00,37.0,4.4,30.31,WNW,300,8.0,18.0,25,0.00,,,0.00,Wunderground v.1.15,2013-04-06 16:15:00,
2013-04-06 12:20:00,37.5,6.5,30.31,WNW,299,2.0,7.0,27,0.00,,,0.00,Wunderground v.1.15,2013-04-06 16:20:00,
2013-04-06 12:25:00,37.3,4.6,30.31,WNW,288,2.0,11.0,25,0.00,,,0.00,Wunderground v.1.15,2013-04-06 16:25:00,
2013-04-06 12:30:00,37.8,9.8,30.31,NE,36,6.0,13.0,31,0.00,,,0.00,Wunderground v.1.15,2013-04-06 16:30:00,
2013-04-06 12:35:00,38.2,7.9,30.31,WNW,289,11.0,19.0,28,0.00,,,0.00,Wunderground v.1.15,2013-04-06 16:35:00,
2013-04-06 12:41:00,38.8,5.9,30.31,WNW,290,4.0,6.0,25,0.00,,,0.00,Wunderground v.1.15,2013-04-06 16:41:00,
2013-04-06 12:46:00,38.5,4.8,30.31,NW,325,18.0,18.0,24,0.00,,,0.00,Wunderground v.1.15,2013-04-06 16:46:00,
2013-04-06 12:51:00,38.4,4.7,30.31,SSW,204,3.0,10.0,24,0.00,,,0.00,Wunderground v.1.15,2013-04-06 16:51:00,
2013-04-06 12:56:00,38.8,5.9,30.30,NNE,23,8.0,14.0,25,0.00,,,0.00,Wunderground v.1.15,2013-04-06 16:56:00,
2013-04-06 13:01:00,39.2,4.4,30.30,NNE,28,9.0,12.0,23,0.00,,,0.00,Wunderground v.1.15,2013-04-06 17:01:00,
2013-04-06 13:06:00,39.0,6.1,30.30,NE,43,3.0,12.0,25,0.00,,,0.00,Wunderground v.1.15,2013-04-06 17:06:00,
2013-04-06 13:12:00,39.4,6.4,30.31,NNW,333,11.0,12.0,25,0.00,,,0.00,Wunderground v.1.15,2013-04-06 17:12:00,
2013-04-06 13:17:00,38.4,4.7,30.31,NW,321,4.0,14.0,24,0.00,,,0.00,Wunderground v.1.15,2013-04-06 17:17:00,
2013-04-06 13:22:00,39.5,13.4,30.31,North,355,6.0,11.0,34,0.00,,,0.00,Wunderground v.1.15,2013-04-06 17:22:00,
2013-04-06 13:27:00,40.1,7.0,30.31,West,269,7.0,11.0,25,0.00,,,0.00,Wunderground v.1.15,2013-04-06 17:27:00,
2013-04-06 13:32:00,38.9,6.0,30.30,West,268,6.0,15.0,25,0.00,,,0.00,Wunderground v.1.15,2013-04-06 17:32:00,
2013-04-06 13:37:00,39.7,4.9,30.31,North,360,4.0,15.0,23,0.00,,,0.00,Wunderground v.1.15,2013-04-06 17:37:00,
2013-04-06 13:42:00,39.2,4.4,30.30,WSW,237,3.0,9.0,23,0.00,,,0.00,Wunderground v.1.15,2013-04-06 17:42:00,
2013-04-06 13:47:00,40.1,5.2,30.31,WNW,284,10.0,13.0,23,0.00,,,0.00,Wunderground v.1.15,2013-04-06 17:47:00,
2013-04-06 13:52:00,40.0,4.1,30.31,WSW,251,5.0,10.0,22,0.00,,,0.00,Wunderground v.1.15,2013-04-06 17:52:00,
2013-04-06 13:57:00,39.7,4.9,30.31,NW,321,7.0,15.0,23,0.00,,,0.00,Wunderground v.1.15,2013-04-06 17:57:00,
2013-04-06 14:02:00,40.0,5.1,30.30,West,280,6.0,7.0,23,0.00,,,0.00,Wunderground v.1.15,2013-04-06 18:02:00,
2013-04-06 14:07:00,40.3,4.4,30.31,WNW,302,12.0,16.0,22,0.00,,,0.00,Wunderground v.1.15,2013-04-06 18:07:00,
2013-04-06 14:12:00,40.3,4.4,30.31,West,275,6.0,14.0,22,0.00,,,0.00,Wunderground v.1.15,2013-04-06 18:12:00,
2013-04-06 14:17:00,40.6,4.7,30.30,WNW,285,6.0,15.0,22,0.00,,,0.00,Wunderground v.1.15,2013-04-06 18:17:00,
2013-04-06 14:22:00,39.9,4.1,30.30,WNW,293,6.0,14.0,22,0.00,,,0.00,Wunderground v.1.15,2013-04-06 18:22:00,
2013-04-06 14:27:00,41.1,5.1,30.30,WNW,298,2.0,14.0,22,0.00,,,0.00,Wunderground v.1.15,2013-04-06 18:27:00,
2013-04-06 14:33:00,41.8,5.7,30.30,North,360,3.0,8.0,22,0.00,,,0.00,Wunderground v.1.15,2013-04-06 18:33:00,
2013-04-06 14:38:00,41.3,4.2,30.30,West,261,8.0,16.0,21,0.00,,,0.00,Wunderground v.1.15,2013-04-06 18:38:00,
2013-04-06 14:43:00,40.9,3.9,30.30,NW,324,14.0,14.0,21,0.00,,,0.00,Wunderground v.1.15,2013-04-06 18:43:00,
2013-04-06 14:48:00,41.5,4.4,30.30,NNW,335,4.0,15.0,21,0.00,,,0.00,Wunderground v.1.15,2013-04-06 18:48:00,
2013-04-06 14:53:00,41.3,3.2,30.31,NW,317,8.0,11.0,20,0.00,,,0.00,Wunderground v.1.15,2013-04-06 18:53:00,
2013-04-06 14:58:00,41.1,3.0,30.31,WNW,287,2.0,15.0,20,0.00,,,0.00,Wunderground v.1.15,2013-04-06 18:58:00,
2013-04-06 15:03:00,41.1,4.1,30.30,NW,306,11.0,12.0,21,0.00,,,0.00,Wunderground v.1.15,2013-04-06 19:03:00,
2013-04-06 15:08:00,42.2,3.9,30.30,NE,51,4.0,12.0,20,0.00,,,0.00,Wunderground v.1.15,2013-04-06 19:08:00,
2013-04-06 15:13:00,42.4,3.0,30.30,WNW,286,6.0,15.0,19,0.00,,,0.00,Wunderground v.1.15,2013-04-06 19:13:00,
2013-04-06 15:18:00,42.6,3.1,30.30,NW,304,8.0,15.0,19,0.00,,,0.00,Wunderground v.1.15,2013-04-06 19:18:00,
2013-04-06 15:23:00,42.1,1.6,30.30,NW,322,6.0,16.0,18,0.00,,,0.00,Wunderground v.1.15,2013-04-06 19:23:00,
2013-04-06 15:28:00,42.4,4.1,30.31,West,260,11.0,16.0,20,0.00,,,0.00,Wunderground v.1.15,2013-04-06 19:28:00,
2013-04-06 15:33:00,42.6,3.1,30.31,WNW,284,4.0,11.0,19,0.00,,,0.00,Wunderground v.1.15,2013-04-06 19:33:00,
2013-04-06 15:38:00,42.8,3.3,30.31,West,271,2.0,11.0,19,0.00,,,0.00,Wunderground v.1.15,2013-04-06 19:38:00,
2013-04-06 15:43:00,43.3,1.3,30.31,WNW,303,6.0,17.0,17,0.00,,,0.00,Wunderground v.1.15,2013-04-06 19:43:00,
2013-04-06 15:48:00,43.7,4.1,30.30,West,279,11.0,17.0,19,0.00,,,0.00,Wunderground v.1.15,2013-04-06 19:48:00,
2013-04-06 15:54:00,43.8,3.0,30.30,NNW,339,4.0,10.0,18,0.00,,,0.00,Wunderground v.1.15,2013-04-06 19:54:00,
2013-04-06 15:59:00,43.6,1.6,30.30,WNW,301,5.0,16.0,17,0.00,,,0.00,Wunderground v.1.15,2013-04-06 19:59:00,
2013-04-06 16:04:00,43.8,3.0,30.30,West,259,4.0,13.0,18,0.00,,,0.00,Wunderground v.1.15,2013-04-06 20:04:00,
2013-04-06 16:09:00,44.4,3.5,30.30,NNE,21,4.0,13.0,18,0.00,,,0.00,Wunderground v.1.15,2013-04-06 20:09:00,
2013-04-06 16:14:00,45.0,4.0,30.30,NW,306,2.0,8.0,18,0.00,,,0.00,Wunderground v.1.15,2013-04-06 20:14:00,
2013-04-06 16:19:00,45.1,4.0,30.30,West,272,6.0,11.0,18,0.00,,,0.00,Wunderground v.1.15,2013-04-06 20:19:00,
2013-04-06 16:24:00,44.7,3.7,30.31,WNW,288,9.0,18.0,18,0.00,,,0.00,Wunderground v.1.15,2013-04-06 20:24:00,
2013-04-06 16:29:00,44.1,3.2,30.31,West,274,5.0,7.0,18,0.00,,,0.00,Wunderground v.1.15,2013-04-06 20:29:00,
2013-04-06 16:34:00,44.6,3.6,30.31,WNW,298,5.0,8.0,18,0.00,,,0.00,Wunderground v.1.15,2013-04-06 20:34:00,
2013-04-06 16:40:00,44.4,3.5,30.31,WNW,284,4.0,5.0,18,0.00,,,0.00,Wunderground v.1.15,2013-04-06 20:40:00,
2013-04-06 16:45:00,44.1,3.2,30.31,WNW,296,3.0,9.0,18,0.00,,,0.00,Wunderground v.1.15,2013-04-06 20:45:00,
2013-04-06 16:50:00,44.5,3.5,30.31,WNW,295,3.0,8.0,18,0.00,,,0.00,Wunderground v.1.15,2013-04-06 20:50:00,
2013-04-06 16:55:00,44.3,3.4,30.31,WNW,288,3.0,10.0,18,0.00,,,0.00,Wunderground v.1.15,2013-04-06 20:55:00,
2013-04-06 17:00:00,44.5,4.7,30.31,WNW,294,2.0,4.0,19,0.00,,,0.00,Wunderground v.1.15,2013-04-06 21:00:00,
2013-04-06 17:05:00,44.7,3.7,30.32,NW,317,1.0,9.0,18,0.00,,,0.00,Wunderground v.1.15,2013-04-06 21:05:00,
2013-04-06 17:10:00,45.4,4.3,30.32,West,261,0.0,5.0,18,0.00,,,0.00,Wunderground v.1.15,2013-04-06 21:10:00,
2013-04-06 17:15:00,45.5,5.6,30.32,West,267,3.0,6.0,19,0.00,,,0.00,Wunderground v.1.15,2013-04-06 21:15:00,
2013-04-06 17:20:00,46.1,4.9,30.32,West,279,1.0,3.0,18,0.00,,,0.00,Wunderground v.1.15,2013-04-06 21:20:00,
2013-04-06 17:25:00,46.3,6.2,30.33,West,267,3.0,4.0,19,0.00,,,0.00,Wunderground v.1.15,2013-04-06 21:25:00,
2013-04-06 17:31:00,45.2,4.1,30.33,West,264,5.0,7.0,18,0.00,,,0.00,Wunderground v.1.15,2013-04-06 21:31:00,
2013-04-06 17:36:00,44.6,3.6,30.33,West,268,5.0,7.0,18,0.00,,,0.00,Wunderground v.1.15,2013-04-06 21:36:00,
2013-04-06 17:41:00,44.6,3.6,30.33,West,278,2.0,5.0,18,0.00,,,0.00,Wunderground v.1.15,2013-04-06 21:41:00,
2013-04-06 17:46:00,44.6,3.6,30.33,NW,325,6.0,10.0,18,0.00,,,0.00,Wunderground v.1.15,2013-04-06 21:46:00,
2013-04-06 17:51:00,44.5,3.5,30.34,NW,315,7.0,7.0,18,0.00,,,0.00,Wunderground v.1.15,2013-04-06 21:51:00,
2013-04-06 17:56:00,44.5,3.5,30.34,SW,235,2.0,7.0,18,0.00,,,0.00,Wunderground v.1.15,2013-04-06 21:56:00,
2013-04-06 18:02:00,44.7,3.7,30.34,WNW,298,2.0,8.0,18,0.00,,,0.00,Wunderground v.1.15,2013-04-06 22:02:00,
2013-04-06 18:07:00,45.0,4.0,30.34,West,273,0.0,8.0,18,0.00,,,0.00,Wunderground v.1.15,2013-04-06 22:07:00,
2013-04-06 18:12:00,45.4,5.5,30.34,WNW,301,2.0,3.0,19,0.00,,,0.00,Wunderground v.1.15,2013-04-06 22:12:00,
2013-04-06 18:17:00,45.1,4.0,30.34,West,259,4.0,7.0,18,0.00,,,0.00,Wunderground v.1.15,2013-04-06 22:17:00,
2013-04-06 18:22:00,46.0,31.2,30.35,WSW,257,1.0,3.0,56,0.00,,,0.00,Wunderground v.1.15,2013-04-06 22:22:00,
2013-04-06 18:27:00,47.9,33.4,30.35,NW,324,0.0,3.0,57,0.00,,,0.00,Wunderground v.1.15,2013-04-06 22:27:00,
2013-04-06 18:32:00,46.9,6.7,30.35,WNW,291,1.0,6.0,19,0.00,,,0.00,Wunderground v.1.15,2013-04-06 22:32:00,
2013-04-06 18:37:00,45.8,11.0,30.36,NW,321,1.0,6.0,24,0.00,,,0.00,Wunderground v.1.15,2013-04-06 22:37:00,
2013-04-06 18:42:00,45.9,11.1,30.36,NW,321,2.0,2.0,24,0.00,,,0.00,Wunderground v.1.15,2013-04-06 22:42:00,
2013-04-06 18:48:00,45.1,7.4,30.36,NW,305,3.0,4.0,21,0.00,,,0.00,Wunderground v.1.15,2013-04-06 22:48:00,
2013-04-06 18:53:00,45.1,16.2,30.36,NW,305,2.0,3.0,31,0.00,,,0.00,Wunderground v.1.15,2013-04-06 22:53:00,
2013-04-06 18:58:00,44.6,7.0,30.36,WNW,300,2.0,4.0,21,0.00,,,0.00,Wunderground v.1.15,2013-04-06 22:58:00,
2013-04-06 19:03:00,43.8,6.3,30.36,WNW,300,1.0,2.0,21,0.00,,,0.00,Wunderground v.1.15,2013-04-06 23:03:00,
2013-04-06 19:08:00,42.9,8.5,30.36,WNW,300,0.0,2.0,24,0.00,,,0.00,Wunderground v.1.15,2013-04-06 23:08:00,
2013-04-06 19:13:00,42.2,11.4,30.37,WNW,300,0.0,2.0,28,0.00,,,0.00,Wunderground v.1.15,2013-04-06 23:13:00,
2013-04-06 19:18:00,41.8,10.2,30.37,WNW,300,0.0,2.0,27,0.00,,,0.00,Wunderground v.1.15,2013-04-06 23:18:00,
2013-04-06 19:23:00,41.7,12.5,30.37,WNW,300,0.0,0.0,30,0.00,,,0.00,Wunderground v.1.15,2013-04-06 23:23:00,
2013-04-06 19:29:00,41.7,14.0,30.37,WNW,300,0.0,0.0,32,0.00,,,0.00,Wunderground v.1.15,2013-04-06 23:29:00,
2013-04-06 19:34:00,41.6,12.4,30.38,WNW,300,0.0,1.0,30,0.00,,,0.00,Wunderground v.1.15,2013-04-06 23:34:00,
2013-04-06 19:39:00,41.8,14.1,30.38,WNW,300,0.0,1.0,32,0.00,,,0.00,Wunderground v.1.15,2013-04-06 23:39:00,
2013-04-06 19:44:00,41.9,13.4,30.38,WNW,300,0.0,0.0,31,0.00,,,0.00,Wunderground v.1.15,2013-04-06 23:44:00,
2013-04-06 19:49:00,40.9,11.8,30.39,WNW,300,0.0,0.0,30,0.00,,,0.00,Wunderground v.1.15,2013-04-06 23:49:00,
2013-04-06 19:54:00,40.5,12.9,30.39,WNW,300,0.0,0.0,32,0.00,,,0.00,Wunderground v.1.15,2013-04-06 23:54:00,
2013-04-06 19:59:00,40.1,12.6,30.39,WNW,300,0.0,0.0,32,0.00,,,0.00,Wunderground v.1.15,2013-04-06 23:59:00,
2013-04-06 20:04:00,39.7,12.9,30.39,WNW,300,1.0,1.0,33,0.00,,,0.00,Wunderground v.1.15,2013-04-07 00:04:00,
2013-04-06 20:09:00,38.9,13.5,30.40,WNW,300,0.0,0.0,35,0.00,,,0.00,Wunderground v.1.15,2013-04-07 00:09:00,
2013-04-06 20:14:00,38.0,14.0,30.40,WNW,300,0.0,1.0,37,0.00,,,0.00,Wunderground v.1.15,2013-04-07 00:14:00,
2013-04-06 20:20:00,37.7,14.9,30.40,WNW,300,0.0,0.0,39,0.00,,,0.00,Wunderground v.1.15,2013-04-07 00:20:00,
2013-04-06 20:25:00,37.7,14.9,30.40,WNW,300,0.0,1.0,39,0.00,,,0.00,Wunderground v.1.15,2013-04-07 00:25:00,
2013-04-06 20:30:00,37.4,14.7,30.40,WNW,300,0.0,1.0,39,0.00,,,0.00,Wunderground v.1.15,2013-04-07 00:30:00,
2013-04-06 20:35:00,36.6,13.9,30.40,WNW,300,0.0,2.0,39,0.00,,,0.00,Wunderground v.1.15,2013-04-07 00:35:00,
2013-04-06 20:40:00,36.0,14.5,30.40,WNW,300,0.0,1.0,41,0.00,,,0.00,Wunderground v.1.15,2013-04-07 00:40:00,
2013-04-06 20:45:00,35.6,13.0,30.40,WNW,300,1.0,2.0,39,0.00,,,0.00,Wunderground v.1.15,2013-04-07 00:45:00,
2013-04-06 20:50:00,35.1,14.3,30.41,WNW,300,0.0,1.0,42,0.00,,,0.00,Wunderground v.1.15,2013-04-07 00:50:00,
2013-04-06 20:55:00,35.0,14.7,30.41,WNW,300,0.0,1.0,43,0.00,,,0.00,Wunderground v.1.15,2013-04-07 00:55:00,
2013-04-06 21:00:00,34.8,14.5,30.41,WNW,300,0.0,0.0,43,0.00,,,0.00,Wunderground v.1.15,2013-04-07 01:00:00,
2013-04-06 21:05:00,34.4,14.2,30.41,WNW,300,0.0,0.0,43,0.00,,,0.00,Wunderground v.1.15,2013-04-07 01:05:00,
2013-04-06 21:10:00,34.3,14.6,30.41,WNW,300,0.0,0.0,44,0.00,,,0.00,Wunderground v.1.15,2013-04-07 01:10:00,
2013-04-06 21:15:00,34.1,13.9,30.41,WNW,300,0.0,0.0,43,0.00,,,0.00,Wunderground v.1.15,2013-04-07 01:15:00,
2013-04-06 21:21:00,33.9,14.3,30.41,WNW,300,0.0,0.0,44,0.00,,,0.00,Wunderground v.1.15,2013-04-07 01:21:00,
2013-04-06 21:26:00,33.6,15.0,30.41,WNW,300,0.0,0.0,46,0.00,,,0.00,Wunderground v.1.15,2013-04-07 01:26:00,
2013-04-06 21:31:00,33.5,14.4,30.42,WNW,300,0.0,0.0,45,0.00,,,0.00,Wunderground v.1.15,2013-04-07 01:31:00,
2013-04-06 21:36:00,33.1,13.5,30.41,WNW,300,0.0,0.0,44,0.00,,,0.00,Wunderground v.1.15,2013-04-07 01:36:00,
2013-04-06 21:41:00,32.7,14.2,30.41,WNW,300,0.0,1.0,46,0.00,,,0.00,Wunderground v.1.15,2013-04-07 01:41:00,
2013-04-06 21:46:00,32.5,15.0,30.42,WNW,300,0.0,1.0,48,0.00,,,0.00,Wunderground v.1.15,2013-04-07 01:46:00,
2013-04-06 21:51:00,32.4,15.8,30.42,WNW,300,0.0,0.0,50,0.00,,,0.00,Wunderground v.1.15,2013-04-07 01:51:00,
2013-04-06 21:56:00,32.5,15.9,30.42,WNW,300,0.0,0.0,50,0.00,,,0.00,Wunderground v.1.15,2013-04-07 01:56:00,
2013-04-06 22:02:00,32.6,16.0,30.42,WNW,300,0.0,0.0,50,0.00,,,0.00,Wunderground v.1.15,2013-04-07 02:02:00,
2013-04-06 22:07:00,32.1,15.5,30.42,WNW,300,0.0,2.0,50,0.00,,,0.00,Wunderground v.1.15,2013-04-07 02:07:00,
2013-04-06 22:12:00,32.0,15.9,30.42,WNW,300,0.0,0.0,51,0.00,,,0.00,Wunderground v.1.15,2013-04-07 02:12:00,
2013-04-06 22:17:00,35.5,31.1,30.42,WNW,300,0.0,1.0,84,0.00,,,0.00,Wunderground v.1.15,2013-04-07 02:17:00,
2013-04-06 22:22:00,37.1,32.7,30.42,WNW,300,0.0,1.0,84,0.00,,,0.00,Wunderground v.1.15,2013-04-07 02:22:00,
2013-04-06 22:27:00,37.9,33.5,30.42,WNW,300,1.0,1.0,84,0.00,,,0.00,Wunderground v.1.15,2013-04-07 02:27:00,
2013-04-06 22:32:00,46.7,42.4,30.42,WNW,300,0.0,0.0,85,0.00,,,0.00,Wunderground v.1.15,2013-04-07 02:32:00,
2013-04-06 22:37:00,54.4,50.3,30.42,WNW,300,0.0,1.0,86,0.00,,,0.00,Wunderground v.1.15,2013-04-07 02:37:00,
2013-04-06 22:42:00,47.7,43.7,30.42,WNW,300,0.0,2.0,86,0.00,,,0.00,Wunderground v.1.15,2013-04-07 02:42:00,
2013-04-06 22:47:00,41.2,35.8,30.42,WNW,300,0.0,2.0,81,0.00,,,0.00,Wunderground v.1.15,2013-04-07 02:47:00,
2013-04-06 22:52:00,36.9,23.9,30.42,WNW,300,0.0,1.0,59,0.00,,,0.00,Wunderground v.1.15,2013-04-07 02:52:00,
2013-04-06 22:57:00,34.8,22.3,30.42,WNW,300,0.0,1.0,60,0.00,,,0.00,Wunderground v.1.15,2013-04-07 02:57:00,
2013-04-06 23:02:00,33.4,21.0,30.42,WNW,300,0.0,0.0,60,0.00,,,0.00,Wunderground v.1.15,2013-04-07 03:02:00,
2013-04-06 23:08:00,32.6,20.2,30.42,WNW,300,0.0,0.0,60,0.00,,,0.00,Wunderground v.1.15,2013-04-07 03:08:00,
2013-04-06 23:13:00,31.5,19.2,30.42,WNW,300,1.0,1.0,60,0.00,,,0.00,Wunderground v.1.15,2013-04-07 03:13:00,
2013-04-06 23:18:00,30.7,18.8,30.42,WNW,300,0.0,1.0,61,0.00,,,0.00,Wunderground v.1.15,2013-04-07 03:18:00,
2013-04-06 23:23:00,30.3,18.8,30.42,WNW,300,0.0,0.0,62,0.00,,,0.00,Wunderground v.1.15,2013-04-07 03:23:00,
2013-04-06 23:28:00,30.0,18.9,30.42,WNW,300,1.0,1.0,63,0.00,,,0.00,Wunderground v.1.15,2013-04-07 03:28:00,
2013-04-06 23:33:00,29.5,18.4,30.42,WNW,300,0.0,1.0,63,0.00,,,0.00,Wunderground v.1.15,2013-04-07 03:33:00,
2013-04-06 23:38:00,29.2,18.9,30.42,WNW,300,0.0,1.0,65,0.00,,,0.00,Wunderground v.1.15,2013-04-07 03:38:00,
2013-04-06 23:40:00,28.4,18.5,30.42,WNW,300,1.0,1.0,66,0.00,,,0.00,Wunderground v.1.15,2013-04-07 03:40:00,
2013-04-06 23:41:00,28.4,18.5,30.43,WNW,300,0.0,1.0,66,0.00,,,0.00,Wunderground v.1.15,2013-04-07 03:41:00,
2013-04-06 23:42:00,28.4,18.5,30.43,WNW,300,1.0,1.0,66,0.00,,,0.00,Wunderground v.1.15,2013-04-07 03:42:00,
2013-04-06 23:43:00,28.8,18.1,30.43,WNW,300,0.0,2.0,64,0.00,,,0.00,Wunderground v.1.15,2013-04-07 03:43:00,
2013-04-06 23:44:00,28.3,18.4,30.43,WNW,300,0.0,1.0,66,0.00,,,0.00,Wunderground v.1.15,2013-04-07 03:44:00,
2013-04-06 23:45:00,28.3,18.4,30.43,WNW,300,1.0,2.0,66,0.00,,,0.00,Wunderground v.1.15,2013-04-07 03:45:00,
2013-04-06 23:46:00,28.2,18.3,30.43,WNW,300,1.0,2.0,66,0.00,,,0.00,Wunderground v.1.15,2013-04-07 03:46:00,
2013-04-06 23:47:00,28.1,18.2,30.43,WNW,300,1.0,2.0,66,0.00,,,0.00,Wunderground v.1.15,2013-04-07 03:47:00,
2013-04-06 23:48:00,28.6,18.7,30.43,WNW,300,2.0,3.0,66,0.00,,,0.00,Wunderground v.1.15,2013-04-07 03:48:00,
2013-04-06 23:49:00,28.1,18.2,30.43,WNW,300,0.0,2.0,66,0.00,,,0.00,Wunderground v.1.15,2013-04-07 03:49:00,
2013-04-06 23:50:00,28.0,17.7,30.43,WNW,300,1.0,1.0,65,0.00,,,0.00,Wunderground v.1.15,2013-04-07 03:50:00,
2013-04-06 23:51:00,27.9,17.6,30.43,WNW,300,1.0,1.0,65,0.00,,,0.00,Wunderground v.1.15,2013-04-07 03:51:00,
2013-04-06 23:52:00,27.9,18.0,30.43,WNW,300,0.0,1.0,66,0.00,,,0.00,Wunderground v.1.15,2013-04-07 03:52:00,
2013-04-06 23:53:00,28.5,18.6,30.42,WNW,300,1.0,2.0,66,0.00,,,0.00,Wunderground v.1.15,2013-04-07 03:53:00,
2013-04-06 23:54:00,27.9,18.0,30.42,WNW,300,0.0,2.0,66,0.00,,,0.00,Wunderground v.1.15,2013-04-07 03:54:00,
2013-04-06 23:55:00,27.9,18.0,30.42,WNW,300,2.0,2.0,66,0.00,,,0.00,Wunderground v.1.15,2013-04-07 03:55:00,
2013-04-06 23:58:00,28.4,18.5,30.42,WNW,300,0.0,2.0,66,0.00,,,0.00,Wunderground v.1.15,2013-04-07 03:58:00,